Database: COMPET-N - COOP - 3PL - 4PL - CNDOOM

WAD: Doom | Doom 2 | TNT | Plutonia | AV | HR | Scythe | MM | MM2 | Requiem | CE
Category: speed | nmare | max | nm100s | tyson | pacifist | fast | respawn | nomo | misc | built | all
Highscore: ALL | IWAD | PWAD | Country | Continent

< Previous map       Next map >
Remove: wad | map | category | player | allE1M2
MapPlayerTimeDateFilenameCommentsDL
E1M2: Nuclear PlantJim Leonard22.002003-01-08e1m2-022.zip - 250
E1M2: Nuclear PlantJonathan Rimmer23.001999-12-12e1m2-023.zip - 108
E1M2: Nuclear PlantThomas Pilger24.001998-06-17e1m2-024.zip - 114
E1M2: Nuclear PlantPatrick von Massow25.001998-05-25e1m2-025.zip - 89
E1M2: Nuclear PlantThomas Zajic26.001996-10-12e1m2-026.zip - 68
E1M2: Nuclear PlantThomas Zajic28.001996-02-02e1m2-028.zip - 69
E1M2: Nuclear PlantEelco de Vries42.001995-06-29e1m2-042.zip - 73
E1M2: Nuclear PlantJonathan Weeks49.001995-06-20e1m2-049.zip - 116
E1M2: Nuclear PlantEelco de Vries50.001995-06-14e1m2-050.zip - 71
E1M2: Nuclear PlantJonathan Matthies1:10.001994-12-13e1m2-110.zip - 149
E1M2: Nuclear PlantAdam Williamson23.002000-03-19n1m2-023.zip - 229
E1M2: Nuclear PlantAdam Williamson24.002000-03-18n1m2-024.zip - 134
E1M2: Nuclear PlantArno Slagboom25.002000-03-18n1m2-025.zip - 101
E1M2: Nuclear PlantJonathan Rimmer26.001999-09-26n1m2-026.zip - 93
E1M2: Nuclear PlantAnders Johnsen27.001998-08-30n1m2-027.zip - 80
E1M2: Nuclear PlantThomas Pilger29.001998-03-28n1m2-029.zip - 74
E1M2: Nuclear PlantIlya Britvich32.001997-08-15n1m2-032.zip - 126
E1M2: Nuclear PlantIlya Britvich39.001997-07-18n1m2-039.zip - 120
E1M2: Nuclear PlantRobert J. Reevy45.001997-07-17n1m2-045.zip - 92
E1M2: Nuclear PlantDavorin Meštrić5:08.001995-12-04dme1m2nm.zip - 70
E1M2: Nuclear PlantDrew DeVore1:38.002002-06-23e1m2-138.zip - 239
E1M2: Nuclear PlantAdam Hegyi1:46.001999-04-14e1m2-146.zip - 111
E1M2: Nuclear PlantAdam Hegyi1:50.001999-04-10e1m2-150.zip - 91
E1M2: Nuclear PlantAdam Hegyi1:55.001999-04-10e1m2-155.zip - 88
E1M2: Nuclear PlantAdam Williamson2:03.001999-04-09e1m2-203.zip - 92
E1M2: Nuclear PlantAdam Williamson2:05.001999-04-08e1m2-205.zip - 106
E1M2: Nuclear PlantAnders Johnsen2:06.001998-08-13e1m2-206.zip - 84
E1M2: Nuclear PlantPeo Sjoblom2:14.001997-03-26e1m2-214.zip - 97
E1M2: Nuclear PlantThomas Zajic2:22.001996-10-13e1m2-222.zip - 53
E1M2: Nuclear PlantKai-Uwe Humpert2:26.001996-05-17e1m2-226.zip - 67
E1M2: Nuclear PlantAndreas Kren2:27.001996-05-12e1m2-227.zip - 55
E1M2: Nuclear PlantThomas Zajic2:28.001996-02-15e1m2-228.zip - 44
E1M2: Nuclear PlantAndreas Kren2:46.001995-12-15e1m2-246.zip - 63
E1M2: Nuclear PlantThomas Zajic3:29.001995-09-30e1m2-329.zip - 64
E1M2: Nuclear PlantEelco de Vries3:53.001995-06-06e1m2-353.zip - 61
E1M2: Nuclear PlantEelco de Vries4:01.001995-03-23e1m2-401.zip - 200
E1M2: Nuclear PlantJim Leonard57.002003-06-29n1s2-057.zip - 231
E1M2: Nuclear PlantRadek Pecka59.002002-05-08n1s2-059.zip - 120
E1M2: Nuclear PlantJonathan Rimmer1:02.001999-08-24n1s2-102.zip - 109
E1M2: Nuclear PlantAdam Hegyi1:04.001999-06-21n1s2-104.zip - 117
E1M2: Nuclear PlantAdam Williamson1:12.001999-06-15n1s2-112.zip - 94
E1M2: Nuclear PlantJim Leonard2:26.002003-03-30t1m2-226.zip - 228
E1M2: Nuclear PlantAdam Hegyi2:28.001999-04-24t1m2-228.zip - 114
E1M2: Nuclear PlantAdam Williamson2:38.001999-04-18t1m2-238.zip - 126
E1M2: Nuclear PlantAdam Hegyi2:41.001999-04-15t1m2-241.zip - 99
E1M2: Nuclear PlantAnders Johnsen2:49.001999-04-10t1m2-249.zip - 76
E1M2: Nuclear PlantAdam Williamson2:54.001999-04-08t1m2-254.zip - 95
E1M2: Nuclear PlantAnders Johnsen2:58.001999-02-25t1m2-258.zip - 79
E1M2: Nuclear PlantAndy Kempling3:39.001998-05-04t1m2-339.zip - 91
E1M2: Nuclear PlantJim Leonard23.002003-01-04p1m2-023.zip - 238
E1M2: Nuclear PlantJonathan Rimmer25.002000-03-26p1m2-025.zip - 101
E1M2: Nuclear PlantJan Endre Jansen27.001999-05-14p1m2-027.zip - 58
E1M2: Nuclear PlantArno Slagboom29.001999-05-08p1m2-029.zip - 92
E1M2: Nuclear PlantAndy Badorek30.001998-04-01p1m2-030.zip - 81
E1M2: Nuclear PlantAndy Badorek35.001998-02-01p1m2-035.zip - 81
E1M2: Nuclear PlantRobert J. Reevy39.001997-05-24p1m2-039.zip - 92
E1M2: Nuclear PlantRobert J. Reevy1:04.001999-02-11p1m2-104.zip - 62
E1M2: Nuclear PlantRadek Pecka1:40.002002-03-19f1m2-140.zip - 240
E1M2: Nuclear PlantRadek Pecka1:44.002001-12-10f1m2-144.zip - 123
E1M2: Nuclear PlantAdam Hegyi1:49.001999-04-11f1m2-149.zip - 118
E1M2: Nuclear PlantAdam Williamson1:58.001999-04-11f1m2-158.zip - 123
E1M2: Nuclear PlantAdam Williamson2:04.001999-04-09f1m2-204.zip - 106
E1M2: Nuclear PlantAdam Williamson2:09.001999-04-08f1m2-209.zip - 93
E1M2: Nuclear PlantAnders Johnsen2:11.001998-09-04f1m2-211.zip - 84
E1M2: Nuclear PlantThomas Zajic2:24.001996-10-13f1m2-224.zip - 62
E1M2: Nuclear PlantPeo Sjoblom2:39.001996-10-08f1m2-239.zip - 83
E1M2: Nuclear PlantPeo Sjoblom2:51.001996-07-17f1m2-251.zip - 81
E1M2: Nuclear PlantPatrick Kalinauskas14:38.001996-08-09f12-1438.zip - 66
E1M2: Nuclear PlantAdam Hegyi1:40.001999-04-10r1m2-140.zip - 207
E1M2: Nuclear PlantAdam Williamson1:47.001999-04-10r1m2-147.zip - 112
E1M2: Nuclear PlantAndy Kempling1:48.001999-04-09r1m2-148.zip - 88
E1M2: Nuclear PlantAdam Williamson1:50.001999-04-09r1m2-150.zip - 112
E1M2: Nuclear PlantAndy Kempling1:54.001999-04-06r1m2-154.zip - 82
E1M2: Nuclear PlantArno Slagboom2:04.001999-04-05r1m2-204.zip - 60
E1M2: Nuclear PlantJan Endre Jansen2:05.001999-02-18r1m2-205.zip - 58
E1M2: Nuclear PlantArno Slagboom2:12.001999-04-04r1m2-212.zip - 73
E1M2: Nuclear PlantJan Endre Jansen2:17.001998-10-08r1m2-217.zip - 57
E1M2: Nuclear PlantThomas Zajic2:22.001996-10-20r1m2-222.zip - 63
E1M2: Nuclear PlantYonatan Donner2:47.001996-10-17r1m2-247.zip - 58
E1M2: Nuclear PlantSimon Widlake3:48.001996-07-19r1m2-348.zip - 58
E1M2: Nuclear PlantAdam Hegyi21.402000-08-21u1202140.zip - 206
E1M2: Nuclear PlantMate Crnčević22.662011-09-11u1202266.zip - 166
E1M2: Nuclear PlantArno Slagboom23.512000-05-01u1202351.zip - 58
Remove: wad | map | category | player | all